Time;durP1;ratioP1;P1;durP2;ratioP2;P2;SDS_P1;SDS_P2;PMS_P1;PMS_P2;Temp;Humidity;BMP_temperature;BMP_pressure;BME280_temperature;BME280_humidity;BME280_pressure;Samples;Min_cycle;Max_cycle;Signal;HPM_P1;HPM_P2
2023/01/28 00:00:46;;;;;;;2.40;1.20;;;;;;;21.14;31.04;99256.67;1869006;76;28131;-60
2023/01/28 00:03:35;;;;;;;1.20;1.20;;;;;;;21.13;31.06;99263.19;1842430;76;28335;-59
2023/01/28 00:06:24;;;;;;;1.40;1.40;;;;;;;21.14;31.03;99262.13;1863044;76;28211;-59
2023/01/28 00:09:12;;;;;;;1.15;1.15;;;;;;;21.14;31.04;99258.04;1854145;76;28224;-61
2023/01/28 00:12:00;;;;;;;1.27;1.27;;;;;;;21.14;31.02;99250.66;1853334;77;28199;-60
2023/01/28 00:14:49;;;;;;;1.20;1.10;;;;;;;21.14;31.03;99246.55;1850422;77;28107;-59
2023/01/28 00:17:37;;;;;;;1.10;1.10;;;;;;;21.13;31.05;99249.00;1848707;75;28112;-59
2023/01/28 00:20:25;;;;;;;1.47;1.35;;;;;;;21.13;31.03;99253.63;1868572;76;28207;-60
2023/01/28 00:23:14;;;;;;;1.40;1.10;;;;;;;21.11;31.05;99253.03;1858080;76;28185;-61
2023/01/28 00:26:05;;;;;;;1.17;1.17;;;;;;;21.11;31.07;99247.56;1853715;77;28095;-61
2023/01/28 00:28:54;;;;;;;1.20;1.10;;;;;;;21.12;31.04;99247.88;1840368;77;28247;-60
2023/01/28 00:31:42;;;;;;;1.40;1.30;;;;;;;21.12;31.04;99247.88;1865643;75;31080;-60
2023/01/28 00:34:30;;;;;;;1.17;1.17;;;;;;;21.10;31.04;99246.73;1863620;76;28177;-60
2023/01/28 00:37:19;;;;;;;1.98;1.30;;;;;;;21.10;31.01;99245.36;1852528;77;28198;-60
2023/01/28 00:40:08;;;;;;;1.17;1.10;;;;;;;21.11;31.03;99240.21;1868675;76;28207;-60
2023/01/28 00:42:57;;;;;;;1.10;1.10;;;;;;;21.08;31.07;99247.49;1856926;77;28149;-60
2023/01/28 00:45:45;;;;;;;1.30;1.30;;;;;;;21.10;31.04;99241.27;1868669;76;28165;-60
2023/01/28 00:48:34;;;;;;;1.20;1.20;;;;;;;21.08;31.04;99240.66;1857143;77;28168;-60
2023/01/28 00:51:23;;;;;;;1.12;1.12;;;;;;;21.10;31.01;99243.16;1868921;76;28309;-60
2023/01/28 00:54:13;;;;;;;1.30;1.20;;;;;;;21.09;31.04;99238.77;1868657;76;28246;-60
2023/01/28 00:57:01;;;;;;;1.12;1.12;;;;;;;21.08;31.03;99242.03;1858861;76;28166;-60
2023/01/28 00:59:50;;;;;;;1.17;1.10;;;;;;;21.10;31.05;99239.89;1858538;76;28571;-59
2023/01/28 01:02:38;;;;;;;1.20;1.20;;;;;;;21.10;31.02;99234.44;1857042;77;28184;-58
2023/01/28 01:05:28;;;;;;;1.07;1.07;;;;;;;21.10;31.02;99235.80;1850922;76;28119;-60
2023/01/28 01:08:16;;;;;;;1.20;1.20;;;;;;;21.09;31.04;99236.05;1854850;77;28086;-60
2023/01/28 01:11:06;;;;;;;1.15;1.15;;;;;;;21.10;31.00;99232.23;1877780;75;28124;-59
2023/01/28 01:13:56;;;;;;;1.30;1.30;;;;;;;21.08;31.01;99238.45;1884498;75;28144;-59
2023/01/28 01:16:45;;;;;;;1.50;1.40;;;;;;;21.10;30.97;99241.78;1865953;75;28126;-61
2023/01/28 01:19:33;;;;;;;1.50;1.27;;;;;;;21.08;30.99;99243.39;1884501;75;28189;-60
2023/01/28 01:22:22;;;;;;;1.10;1.10;;;;;;;21.09;31.01;99245.60;1884421;75;28140;-60
2023/01/28 01:25:12;;;;;;;1.27;1.20;;;;;;;21.08;31.01;99249.38;1884548;75;28094;-60
2023/01/28 01:28:01;;;;;;;1.17;1.17;;;;;;;21.08;31.02;99248.86;1864880;75;28227;-59
2023/01/28 01:30:50;;;;;;;1.25;1.15;;;;;;;21.08;31.00;99246.66;1884728;75;31181;-61
2023/01/28 01:33:39;;;;;;;1.07;1.07;;;;;;;21.09;30.99;99252.43;1861630;75;28302;-61
2023/01/28 01:36:27;;;;;;;1.15;1.15;;;;;;;21.06;31.00;99248.26;1884322;75;28092;-59
2023/01/28 01:39:17;;;;;;;1.17;1.17;;;;;;;21.07;30.99;99250.46;1863167;75;28121;-59
2023/01/28 01:42:08;;;;;;;1.10;1.10;;;;;;;21.07;30.98;99247.73;1878410;75;28207;-59
2023/01/28 01:45:08;;;;;;;1.12;1.12;;;;;;;21.07;30.99;99247.73;1873592;75;28132;-59
2023/01/28 01:47:59;;;;;;;1.10;1.10;;;;;;;21.07;30.98;99245.84;1884405;75;28121;-59
2023/01/28 01:50:53;;;;;;;1.40;1.30;;;;;;;21.04;30.98;99241.33;1865272;75;28081;-60
2023/01/28 01:53:44;;;;;;;1.35;1.25;;;;;;;21.03;31.00;99243.22;1884577;75;28200;-60
2023/01/28 01:56:35;;;;;;;1.00;1.00;;;;;;;21.03;31.01;99242.38;1884311;75;28191;-60
2023/01/28 01:59:26;;;;;;;1.40;1.30;;;;;;;21.01;31.01;99250.81;1884564;75;28152;-61
2023/01/28 02:02:15;;;;;;;1.20;1.20;;;;;;;21.02;30.99;99241.56;1865744;75;28190;-61
2023/01/28 02:05:05;;;;;;;1.17;1.17;;;;;;;21.03;31.01;99243.74;1861869;75;28106;-61
2023/01/28 02:11:08;;;;;;;1.12;1.12;;;;;;;21.03;31.00;99239.64;1881732;75;28155;-61
2023/01/28 02:14:00;;;;;;;1.20;1.20;;;;;;;21.01;31.01;99242.62;1868845;76;28164;-60
2023/01/28 02:16:48;;;;;;;1.10;1.10;;;;;;;21.00;31.01;99237.39;1837685;77;28646;-59
2023/01/28 02:19:40;;;;;;;1.20;1.20;;;;;;;20.98;31.04;99238.16;1832596;77;28176;-60
2023/01/28 02:22:34;;;;;;;1.30;1.20;;;;;;;21.02;31.00;99238.84;1844367;76;28228;-60
2023/01/28 02:25:52;;;;;;;1.20;1.10;;;;;;;21.02;31.01;99236.63;1855397;76;28263;-59
2023/01/28 02:28:46;;;;;;;1.50;1.40;;;;;;;21.00;31.01;99240.97;1856762;77;28102;-60
2023/01/28 02:31:41;;;;;;;1.50;1.20;;;;;;;20.96;31.05;99242.99;1868745;76;28110;-60
2023/01/28 02:34:36;;;;;;;1.10;1.10;;;;;;;20.95;31.08;99243.55;1845112;76;28101;-59
2023/01/28 02:37:36;;;;;;;1.12;1.02;;;;;;;20.97;31.03;99246.04;1868504;76;28125;-60
2023/01/28 02:40:28;;;;;;;1.10;1.10;;;;;;;20.97;31.02;99249.61;1851661;76;28191;-60
2023/01/28 02:43:17;;;;;;;1.17;1.17;;;;;;;20.97;31.04;99256.44;1848873;76;28655;-60
2023/01/28 02:49:30;;;;;;;1.50;1.30;;;;;;;20.96;31.01;99252.55;1840113;77;28110;-59
2023/01/28 02:56:28;;;;;;;1.07;1.07;;;;;;;20.93;31.09;99240.74;1850844;77;28090;-59
2023/01/28 02:59:34;;;;;;;1.25;1.25;;;;;;;20.87;31.14;99252.04;1854391;76;28268;-59
2023/01/28 03:02:49;;;;;;;1.20;1.10;;;;;;;20.86;31.16;99258.58;1856901;77;28146;-61
2023/01/28 03:06:02;;;;;;;1.00;1.00;;;;;;;20.86;31.13;99260.47;1765161;80;28761;-59
2023/01/28 03:37:36;;;;;;;1.25;0.90;;;;;;;20.83;31.12;99258.19;1878380;76;28215;-59
2023/01/28 03:40:32;;;;;;;1.02;1.02;;;;;;;20.83;31.16;99253.56;1878463;76;28149;-59
2023/01/28 03:43:22;;;;;;;1.00;1.00;;;;;;;20.87;31.12;99260.23;1877766;76;28089;-60
2023/01/28 03:46:11;;;;;;;0.93;0.93;;;;;;;20.89;31.09;99251.27;1845059;77;28176;-60
2023/01/28 03:48:59;;;;;;;1.10;1.10;;;;;;;20.90;31.02;99258.42;1867140;76;28223;-59
2023/01/28 03:51:48;;;;;;;1.17;1.17;;;;;;;20.91;31.04;99256.53;1872027;76;28097;-60
2023/01/28 03:54:37;;;;;;;1.10;1.10;;;;;;;20.89;31.02;99253.16;1878222;76;28105;-60
2023/01/28 03:57:30;;;;;;;1.15;1.15;;;;;;;20.91;31.01;99255.16;1845085;77;28196;-60
2023/01/28 04:00:20;;;;;;;1.10;1.00;;;;;;;20.91;30.99;99253.80;1878102;76;28149;-60
2023/01/28 04:03:18;;;;;;;1.02;1.02;;;;;;;20.91;31.00;99246.41;1878226;76;28150;-60
2023/01/28 04:06:17;;;;;;;1.20;1.20;;;;;;;20.91;30.98;99251.06;1878205;76;28219;-60
2023/01/28 04:09:10;;;;;;;1.07;1.07;;;;;;;20.90;30.99;99264.40;1878280;76;28149;-61
2023/01/28 04:12:12;;;;;;;0.95;0.95;;;;;;;20.90;30.98;99254.84;1870352;76;38599;-60
2023/01/28 04:15:13;;;;;;;1.20;1.20;;;;;;;20.89;30.97;99260.83;1857921;76;28126;-60
2023/01/28 04:17:51;;;;;;;1.10;1.10;;;;;;;20.86;31.00;99256.38;1878331;76;28160;-59
2023/01/28 04:20:42;;;;;;;1.10;1.10;;;;;;;20.88;31.00;99264.64;1878099;76;28212;-60
2023/01/28 04:23:30;;;;;;;1.02;1.02;;;;;;;20.86;31.00;99264.04;1878386;76;28226;-60
2023/01/28 04:26:19;;;;;;;1.10;1.10;;;;;;;20.90;30.97;99271.23;1878330;76;28118;-60
2023/01/28 04:29:08;;;;;;;1.20;1.10;;;;;;;20.89;31.01;99273.12;1878375;76;28137;-61
2023/01/28 04:31:58;;;;;;;1.00;1.00;;;;;;;20.89;30.99;99272.27;1878382;76;28122;-60
2023/01/28 04:35:03;;;;;;;1.20;1.10;;;;;;;20.90;30.96;99272.59;1824858;78;28312;-61
2023/01/28 04:37:59;;;;;;;0.98;0.98;;;;;;;20.87;30.96;99274.41;1829723;76;28090;-59
2023/01/28 04:40:53;;;;;;;1.00;1.00;;;;;;;20.85;30.99;99280.10;1878405;76;28155;-59
2023/01/28 04:43:43;;;;;;;0.90;0.90;;;;;;;20.86;30.99;99276.84;1878271;76;28223;-59
2023/01/28 04:46:33;;;;;;;0.82;0.82;;;;;;;20.88;30.94;99279.66;1867799;75;28158;-60
2023/01/28 04:49:23;;;;;;;1.00;1.00;;;;;;;20.88;30.96;99278.81;1869262;76;28173;-57
2023/01/28 04:52:28;;;;;;;1.10;1.10;;;;;;;20.87;30.94;99270.31;1776012;79;28248;-60
2023/01/28 04:55:18;;;;;;;1.17;1.17;;;;;;;20.86;30.96;99273.59;1872467;76;28029;-59
2023/01/28 04:58:07;;;;;;;1.10;1.10;;;;;;;20.86;30.96;99274.12;1878349;76;28177;-59
2023/01/28 05:00:58;;;;;;;1.22;1.12;;;;;;;20.87;30.94;99272.52;1878234;76;28203;-59
2023/01/28 05:03:47;;;;;;;1.20;1.20;;;;;;;20.88;30.93;99272.83;1859978;76;28231;-59
2023/01/28 05:06:37;;;;;;;1.00;1.00;;;;;;;20.88;30.92;99270.63;1878431;76;28211;-59
2023/01/28 05:09:27;;;;;;;1.20;1.20;;;;;;;20.87;30.92;99264.84;1878356;76;28282;-59
2023/01/28 05:12:16;;;;;;;1.05;1.05;;;;;;;20.86;30.91;99264.04;1878265;76;28228;-59
2023/01/28 05:15:07;;;;;;;1.00;1.00;;;;;;;20.87;30.91;99261.59;1859758;76;28185;-61
2023/01/28 05:17:56;;;;;;;0.93;0.93;;;;;;;20.86;30.92;99265.93;1878193;76;28127;-59
2023/01/28 05:20:46;;;;;;;0.93;0.93;;;;;;;20.85;30.89;99269.19;1878534;76;32026;-59
2023/01/28 05:23:34;;;;;;;1.10;1.10;;;;;;;20.86;30.92;99272.75;1878147;76;28552;-60
2023/01/28 05:26:23;;;;;;;1.10;1.10;;;;;;;20.85;30.92;99266.98;1878388;76;28093;-60
2023/01/28 05:29:11;;;;;;;1.12;1.05;;;;;;;20.85;30.92;99269.70;1878457;76;28177;-61
2023/01/28 05:32:00;;;;;;;1.00;1.00;;;;;;;20.85;30.89;99277.90;1878379;76;28183;-59
2023/01/28 05:34:50;;;;;;;1.10;1.10;;;;;;;20.84;30.90;99275.69;1852237;76;28175;-59
2023/01/28 05:37:38;;;;;;;1.10;1.10;;;;;;;20.86;30.89;99284.52;1859365;76;28130;-61
2023/01/28 05:40:27;;;;;;;1.00;1.00;;;;;;;20.86;30.89;99287.77;1878320;76;38523;-59
2023/01/28 05:43:16;;;;;;;1.00;1.00;;;;;;;20.86;30.87;99285.04;1878357;76;28149;-60
2023/01/28 05:46:06;;;;;;;1.10;1.10;;;;;;;20.87;30.86;99283.44;1878527;76;31126;-59
2023/01/28 05:49:13;;;;;;;1.10;1.10;;;;;;;20.84;30.89;99287.17;1846492;77;28212;-59
2023/01/28 05:52:18;;;;;;;1.25;1.25;;;;;;;20.83;30.88;99292.31;1797343;78;28395;-60
2023/01/28 05:55:07;;;;;;;1.00;1.00;;;;;;;20.79;30.92;99292.47;1872438;74;28090;-59
2023/01/28 05:57:56;;;;;;;1.10;1.10;;;;;;;20.81;30.92;99294.44;1878446;76;28122;-59
2023/01/28 06:00:46;;;;;;;1.02;1.02;;;;;;;20.82;30.86;99297.48;1878158;76;28109;-60
2023/01/28 06:03:35;;;;;;;1.00;1.00;;;;;;;20.83;30.86;99296.41;1867864;76;28235;-60
2023/01/28 06:06:24;;;;;;;1.20;1.10;;;;;;;20.84;30.82;99298.09;1871646;76;28180;-60
2023/01/28 06:09:13;;;;;;;1.05;1.05;;;;;;;20.84;30.82;99287.17;1878134;76;28207;-60
2023/01/28 06:12:01;;;;;;;1.00;1.00;;;;;;;20.81;30.84;99290.34;1860788;76;28181;-59
2023/01/28 06:14:51;;;;;;;1.10;1.10;;;;;;;20.84;30.83;99289.90;1845094;76;28292;-60
2023/01/28 06:17:59;;;;;;;1.10;1.10;;;;;;;20.83;30.80;99296.41;1786030;79;28202;-62
2023/01/28 06:20:50;;;;;;;1.02;1.02;;;;;;;20.80;30.84;99299.58;1766331;79;28285;-60
2023/01/28 06:23:38;;;;;;;1.00;1.00;;;;;;;20.80;30.83;99305.88;1845030;76;28117;-59
2023/01/28 06:26:28;;;;;;;1.00;1.00;;;;;;;20.82;30.82;99305.67;1859286;76;28099;-61
2023/01/28 06:29:16;;;;;;;1.00;1.00;;;;;;;20.80;30.85;99314.08;1878064;76;28455;-59
2023/01/28 06:32:05;;;;;;;0.90;0.90;;;;;;;20.78;30.84;99313.99;1878126;76;28085;-60
2023/01/28 06:34:53;;;;;;;0.90;0.90;;;;;;;20.78;30.85;99318.92;1878166;76;28228;-59
2023/01/28 06:37:42;;;;;;;0.90;0.90;;;;;;;20.82;30.81;99322.05;1858640;76;28158;-61
2023/01/28 06:40:30;;;;;;;0.80;0.80;;;;;;;20.81;30.83;99319.01;1878029;76;28112;-60
2023/01/28 06:43:19;;;;;;;1.00;1.00;;;;;;;20.80;30.81;99320.05;1878132;76;28136;-59
2023/01/28 06:46:07;;;;;;;0.98;0.98;;;;;;;20.79;30.83;99325.23;1802008;79;28305;-59
2023/01/28 06:48:55;;;;;;;1.12;1.10;;;;;;;20.80;30.80;99325.52;1869042;76;28055;-59
2023/01/28 06:51:43;;;;;;;0.95;0.95;;;;;;;20.81;30.82;99328.56;1865040;76;28215;-60
2023/01/28 06:54:32;;;;;;;1.15;1.15;;;;;;;20.81;30.79;99327.20;1856369;76;28150;-59
2023/01/28 06:57:20;;;;;;;1.10;1.10;;;;;;;20.80;30.79;99332.34;1851208;76;28236;-60
2023/01/28 07:00:12;;;;;;;1.10;1.10;;;;;;;20.77;30.79;99331.45;1869191;76;28129;-60
2023/01/28 07:03:00;;;;;;;1.13;1.10;;;;;;;20.79;30.64;99337.52;1869256;76;28229;-60
2023/01/28 07:05:48;;;;;;;1.03;1.03;;;;;;;20.79;30.64;99337.52;1869268;76;28148;-59
2023/01/28 07:08:38;;;;;;;0.85;0.85;;;;;;;20.78;30.81;99338.56;1869038;76;28246;-59
2023/01/28 07:11:27;;;;;;;1.00;1.00;;;;;;;20.78;30.81;99330.37;1861263;76;28236;-60
2023/01/28 07:14:15;;;;;;;1.10;1.10;;;;;;;20.78;30.76;99339.92;1860163;76;28168;-60
2023/01/28 07:17:03;;;;;;;0.90;0.90;;;;;;;20.78;30.81;99343.50;1869269;76;28235;-59
2023/01/28 07:19:52;;;;;;;1.22;1.12;;;;;;;20.78;30.75;99333.94;1849889;76;28072;-61
2023/01/28 07:22:44;;;;;;;1.10;1.10;;;;;;;20.76;30.82;99339.32;1869102;76;28109;-59
2023/01/28 07:25:32;;;;;;;1.00;0.90;;;;;;;20.76;30.78;99340.16;1869413;76;28125;-59
2023/01/28 07:28:21;;;;;;;0.90;0.90;;;;;;;20.73;30.85;99337.87;1851529;76;28201;-59
2023/01/28 07:31:09;;;;;;;1.25;1.15;;;;;;;20.73;30.94;99341.12;1848915;76;28084;-59
2023/01/28 07:33:57;;;;;;;0.90;0.90;;;;;;;20.75;30.83;99341.21;1869404;76;28093;-58
2023/01/28 07:36:45;;;;;;;1.10;1.10;;;;;;;20.76;30.79;99348.88;1869014;76;28161;-60
2023/01/28 07:39:34;;;;;;;1.10;1.10;;;;;;;20.76;30.80;99348.88;1853265;76;28237;-59
2023/01/28 07:42:23;;;;;;;1.00;1.00;;;;;;;20.76;30.78;99354.33;1867754;76;28098;-59
2023/01/28 07:45:14;;;;;;;0.93;0.93;;;;;;;20.76;30.79;99369.34;1846880;76;28223;-59
2023/01/28 07:48:05;;;;;;;1.02;0.93;;;;;;;20.73;30.81;99367.90;1848600;76;28146;-61
2023/01/28 07:50:55;;;;;;;0.87;0.87;;;;;;;20.74;30.81;99379.66;1869105;76;28204;-59
2023/01/28 07:53:43;;;;;;;1.00;1.00;;;;;;;20.75;30.79;99377.25;1869173;76;28107;-59
2023/01/28 07:56:32;;;;;;;0.82;0.82;;;;;;;20.75;30.80;99375.89;1868951;76;28081;-61
2023/01/28 07:59:20;;;;;;;1.00;1.00;;;;;;;20.74;30.80;99376.93;1869119;76;28056;-62
2023/01/28 08:02:12;;;;;;;1.00;1.00;;;;;;;20.73;30.81;99387.01;1869223;76;28204;-62
2023/01/28 08:05:00;;;;;;;1.05;1.05;;;;;;;20.74;30.79;99389.22;1868960;76;28111;-60
2023/01/28 08:07:49;;;;;;;0.90;0.90;;;;;;;20.74;30.79;99396.04;1866590;76;28217;-59
2023/01/28 08:10:39;;;;;;;1.00;1.00;;;;;;;20.72;30.80;99400.89;1854564;76;28121;-61
2023/01/28 08:13:27;;;;;;;0.80;0.80;;;;;;;20.73;30.82;99403.38;1850251;76;28199;-59
2023/01/28 08:16:16;;;;;;;0.95;0.95;;;;;;;20.74;30.78;99405.07;1869038;76;28179;-61
2023/01/28 08:19:04;;;;;;;0.98;0.98;;;;;;;20.71;30.79;99416.42;1869019;76;28079;-60
2023/01/28 08:21:52;;;;;;;1.00;1.00;;;;;;;20.72;30.81;99420.84;1868955;76;28115;-61
2023/01/28 08:24:40;;;;;;;0.93;0.93;;;;;;;20.74;30.78;99426.06;1848688;76;28229;-59
2023/01/28 08:27:29;;;;;;;1.00;1.00;;;;;;;20.72;30.81;99430.91;1869253;76;28151;-59
2023/01/28 08:30:17;;;;;;;1.07;1.07;;;;;;;20.69;30.83;99436.29;1869226;76;28156;-61
2023/01/28 08:33:08;;;;;;;0.90;0.90;;;;;;;20.70;30.85;99431.67;1868908;76;28176;-60
2023/01/28 08:35:56;;;;;;;1.00;1.00;;;;;;;20.71;30.84;99437.42;1868872;76;28116;-61
2023/01/28 08:38:45;;;;;;;1.20;1.00;;;;;;;20.71;30.82;99437.42;1863665;76;28587;-60
2023/01/28 08:41:34;;;;;;;1.02;1.02;;;;;;;20.69;30.83;99439.02;1854823;76;28119;-59
2023/01/28 08:44:22;;;;;;;1.10;1.10;;;;;;;20.66;30.88;99444.39;1851576;76;28154;-60
2023/01/28 08:47:10;;;;;;;0.98;0.98;;;;;;;20.68;30.91;99453.71;1869005;76;28241;-59
2023/01/28 08:49:59;;;;;;;1.00;1.00;;;;;;;20.68;30.86;99459.17;1868944;76;28145;-61
2023/01/28 08:52:48;;;;;;;1.10;1.10;;;;;;;20.68;30.91;99463.81;1868902;76;28167;-59
2023/01/28 08:55:36;;;;;;;0.95;0.95;;;;;;;20.70;30.90;99463.88;1861876;75;28204;-60
2023/01/28 08:58:25;;;;;;;0.90;0.90;;;;;;;20.73;30.85;99469.42;1892437;75;28273;-61
2023/01/28 09:01:13;;;;;;;0.95;0.95;;;;;;;20.70;30.88;99475.34;1868892;76;28189;-61
2023/01/28 09:04:01;;;;;;;1.10;1.10;;;;;;;20.74;30.86;99475.20;1852495;76;28264;-60
2023/01/28 09:06:50;;;;;;;1.05;1.05;;;;;;;20.74;30.84;99481.50;1862901;76;28462;-60
2023/01/28 09:09:38;;;;;;;1.07;1.07;;;;;;;20.72;30.86;99480.89;1868951;76;28447;-60
2023/01/28 09:12:27;;;;;;;0.90;0.90;;;;;;;20.72;30.86;99489.08;1869225;76;28176;-60
2023/01/28 09:15:15;;;;;;;1.00;1.00;;;;;;;20.71;30.84;99483.30;1851462;76;28129;-60
2023/01/28 09:18:05;;;;;;;1.00;1.00;;;;;;;20.70;30.89;99482.17;1858791;76;28772;-60
2023/01/28 09:20:53;;;;;;;1.30;0.90;;;;;;;20.70;30.91;99487.62;1849039;77;28150;-59
2023/01/28 09:23:42;;;;;;;1.20;1.10;;;;;;;20.70;30.91;99487.62;1856994;77;28148;-60
2023/01/28 09:26:33;;;;;;;1.00;1.00;;;;;;;20.70;30.89;99491.72;1850525;76;28082;-59
2023/01/28 09:29:22;;;;;;;1.20;1.20;;;;;;;20.64;30.89;99490.18;1868572;76;28196;-59
2023/01/28 09:32:11;;;;;;;1.00;1.00;;;;;;;20.71;30.90;99502.41;1845409;76;28204;-59
2023/01/28 09:34:59;;;;;;;1.00;1.00;;;;;;;20.72;30.89;99507.34;1853709;76;28078;-60
2023/01/28 09:37:50;;;;;;;1.02;1.02;;;;;;;20.70;30.90;99506.73;1856917;77;28131;-60
2023/01/28 09:40:44;;;;;;;1.20;1.20;;;;;;;20.72;30.88;99508.19;1856996;77;28098;-61
2023/01/28 09:43:43;;;;;;;1.10;1.05;;;;;;;20.70;30.89;99513.56;1868534;76;28651;-59
2023/01/28 09:46:37;;;;;;;1.00;1.00;;;;;;;20.71;30.88;99522.88;1868686;76;28235;-59
2023/01/28 09:49:41;;;;;;;1.13;1.13;;;;;;;20.68;30.89;99528.25;1837521;77;28209;-59
2023/01/28 09:52:32;;;;;;;1.30;1.20;;;;;;;20.65;30.96;99534.14;1838084;77;28130;-58
2023/01/28 09:55:26;;;;;;;1.10;1.10;;;;;;;20.62;30.96;99535.97;1868560;74;28171;-59
2023/01/28 09:58:17;;;;;;;1.20;1.20;;;;;;;20.62;31.03;99536.49;1852946;77;28177;-59
2023/01/28 10:01:11;;;;;;;1.30;1.30;;;;;;;20.58;31.02;99537.44;1856126;76;28091;-59
2023/01/28 10:04:21;;;;;;;1.30;1.30;;;;;;;20.64;30.85;99546.13;1868582;76;28544;-59
2023/01/28 10:07:27;;;;;;;1.40;1.30;;;;;;;20.68;30.97;99548.43;1829113;76;28534;-59
2023/01/28 10:10:34;;;;;;;1.30;1.30;;;;;;;20.64;30.99;99546.13;1838366;77;28168;-59
2023/01/28 10:13:43;;;;;;;1.40;1.35;;;;;;;20.61;31.07;99549.29;1835158;77;28309;-59
2023/01/28 10:16:43;;;;;;;1.30;1.30;;;;;;;20.60;31.04;99553.09;1834774;77;28489;-59
2023/01/28 10:19:35;;;;;;;1.52;1.50;;;;;;;20.59;31.03;99552.77;1856546;76;28637;-61
2023/01/28 10:22:26;;;;;;;1.55;1.45;;;;;;;20.60;31.09;99543.55;1833509;77;29309;-59
2023/01/28 10:25:20;;;;;;;1.67;1.57;;;;;;;20.63;31.05;99554.55;1842433;77;28176;-60
2023/01/28 10:28:17;;;;;;;1.70;1.60;;;;;;;20.64;31.03;99561.14;1856640;77;28148;-60
2023/01/28 10:31:13;;;;;;;1.62;1.52;;;;;;;20.67;30.99;99559.87;1856869;77;28091;-60
2023/01/28 10:34:03;;;;;;;1.70;1.60;;;;;;;20.65;31.00;99555.98;1846137;76;28153;-60
2023/01/28 10:36:52;;;;;;;1.65;1.55;;;;;;;20.65;31.02;99564.16;1846700;76;28243;-60
2023/01/28 10:39:41;;;;;;;1.70;1.60;;;;;;;20.63;31.01;99571.73;1837595;77;28217;-59
2023/01/28 10:42:33;;;;;;;1.85;1.75;;;;;;;20.64;31.00;99568.48;1868714;76;28184;-59
2023/01/28 10:45:30;;;;;;;1.97;1.87;;;;;;;20.68;30.98;99557.98;1856909;77;28738;-60
2023/01/28 10:48:34;;;;;;;2.13;2.00;;;;;;;20.66;31.00;99561.75;1845119;76;28270;-60
2023/01/28 10:51:31;;;;;;;2.40;2.20;;;;;;;20.65;30.98;99558.70;1856841;76;28611;-59
2023/01/28 10:54:22;;;;;;;2.40;2.20;;;;;;;20.64;31.01;99559.78;1853774;76;28125;-59
2023/01/28 10:57:14;;;;;;;2.20;2.00;;;;;;;20.62;31.04;99553.71;1848469;76;28121;-60
2023/01/28 11:00:23;;;;;;;2.30;2.10;;;;;;;20.63;31.03;99556.73;1839667;76;28359;-59
2023/01/28 11:03:20;;;;;;;2.40;2.20;;;;;;;20.65;31.03;99552.44;1840346;76;28168;-60
2023/01/28 11:06:11;;;;;;;2.30;2.20;;;;;;;20.63;31.03;99556.73;1868578;76;28109;-59
2023/01/28 11:08:59;;;;;;;2.42;2.20;;;;;;;20.61;31.03;99547.93;1868594;76;28152;-60
2023/01/28 11:11:48;;;;;;;2.67;2.08;;;;;;;20.65;30.98;99551.07;1856810;77;28126;-59
2023/01/28 11:14:37;;;;;;;2.72;2.22;;;;;;;20.66;31.03;99545.90;1856674;77;28234;-60
2023/01/28 11:17:29;;;;;;;2.50;2.30;;;;;;;20.67;30.98;99554.41;1856848;77;28117;-59
2023/01/28 11:20:20;;;;;;;2.50;2.30;;;;;;;20.68;30.98;99549.80;1862950;76;28180;-59
2023/01/28 11:23:23;;;;;;;2.47;2.27;;;;;;;20.70;30.95;99550.41;1878464;76;33094;-59
2023/01/28 11:26:18;;;;;;;2.77;2.58;;;;;;;20.69;30.96;99552.29;1877957;76;28222;-59
2023/01/28 11:29:06;;;;;;;2.90;2.70;;;;;;;20.65;30.97;99551.07;1878164;76;28199;-59
2023/01/28 11:31:56;;;;;;;2.90;2.70;;;;;;;20.64;30.99;99543.41;1878272;76;28128;-59
2023/01/28 11:34:56;;;;;;;2.67;2.40;;;;;;;20.68;30.98;99547.88;1860508;76;28159;-61
2023/01/28 11:37:46;;;;;;;3.00;2.80;;;;;;;20.63;31.00;99545.81;1857148;76;28197;-60
2023/01/28 11:40:34;;;;;;;3.00;2.70;;;;;;;20.65;30.98;99542.88;1872317;76;28234;-61
2023/01/28 11:43:28;;;;;;;2.92;2.62;;;;;;;20.64;31.03;99543.92;1866927;76;28195;-60
2023/01/28 11:46:26;;;;;;;2.70;2.50;;;;;;;20.65;30.97;99539.59;1859853;76;28120;-60
2023/01/28 11:49:38;;;;;;;2.60;2.40;;;;;;;20.65;30.97;99533.33;1808660;76;28199;-61
2023/01/28 11:52:35;;;;;;;3.13;2.83;;;;;;;20.65;30.99;99538.23;1877997;76;28173;-61
2023/01/28 11:55:43;;;;;;;3.77;2.77;;;;;;;20.63;30.99;99540.35;1877878;76;28159;-60
2023/01/28 11:58:57;;;;;;;2.98;2.77;;;;;;;20.62;31.01;99533.23;1878266;76;28282;-60
2023/01/28 12:01:54;;;;;;;3.15;2.62;;;;;;;20.61;31.03;99530.19;1878340;76;28110;-60
2023/01/28 12:04:54;;;;;;;3.40;3.02;;;;;;;20.59;31.05;99533.67;1878042;76;28220;-61
2023/01/28 12:07:58;;;;;;;2.92;2.72;;;;;;;20.59;31.05;99530.94;1878219;76;28283;-59
2023/01/28 12:10:55;;;;;;;4.62;3.40;;;;;;;20.58;31.04;99536.08;1878408;76;28190;-59
2023/01/28 12:13:49;;;;;;;3.20;2.90;;;;;;;20.59;31.09;99540.49;1880036;76;28425;-60
2023/01/28 12:16:46;;;;;;;3.02;2.83;;;;;;;20.58;31.06;99540.17;1846511;77;28196;-60
2023/01/28 12:19:47;;;;;;;2.90;2.70;;;;;;;20.60;31.04;99536.72;1875827;76;28126;-60
2023/01/28 12:22:38;;;;;;;3.35;2.83;;;;;;;20.61;31.03;99537.02;1859139;76;28149;-61
2023/01/28 12:25:45;;;;;;;3.10;2.90;;;;;;;20.63;31.04;99536.26;1857042;77;28242;-60
2023/01/28 12:28:39;;;;;;;3.23;2.90;;;;;;;20.61;31.02;99531.55;1857022;76;28139;-60
2023/01/28 12:31:40;;;;;;;3.70;2.90;;;;;;;20.60;31.05;99537.24;1868886;76;28214;-61
2023/01/28 12:34:48;;;;;;;2.87;2.67;;;;;;;20.59;31.04;99535.55;1856847;77;28187;-61
2023/01/28 12:37:54;;;;;;;3.00;2.80;;;;;;;20.62;30.99;99534.61;1836497;77;38458;-60
2023/01/28 12:41:00;;;;;;;3.47;2.90;;;;;;;20.58;31.04;99531.17;1868830;76;28124;-60
2023/01/28 12:44:01;;;;;;;3.08;2.83;;;;;;;20.57;31.06;99535.79;1856801;77;28158;-59
2023/01/28 12:46:55;;;;;;;3.02;2.80;;;;;;;20.59;31.03;99537.77;1868700;76;28167;-60
2023/01/28 12:50:02;;;;;;;3.92;3.12;;;;;;;20.60;31.01;99529.90;1847213;76;28303;-60
2023/01/28 12:52:59;;;;;;;3.00;2.80;;;;;;;20.60;31.01;99527.17;1856549;76;28112;-60
2023/01/28 12:56:14;;;;;;;3.02;2.83;;;;;;;20.60;31.03;99532.62;1847679;76;28109;-60
2023/01/28 12:59:34;;;;;;;3.10;2.90;;;;;;;20.58;31.04;99533.34;1868566;76;28141;-60
2023/01/28 13:02:28;;;;;;;3.12;2.90;;;;;;;20.56;31.07;99522.38;1856755;77;28113;-60
2023/01/28 13:05:19;;;;;;;3.15;2.70;;;;;;;20.53;31.09;99533.20;1836881;77;28109;-61
2023/01/28 13:08:26;;;;;;;3.15;2.90;;;;;;;20.55;31.07;99532.45;1846411;76;28127;-59
2023/01/28 13:11:17;;;;;;;3.20;2.90;;;;;;;20.57;31.09;99539.88;1846729;76;28225;-59
2023/01/28 13:14:07;;;;;;;2.95;2.75;;;;;;;20.58;31.09;99535.27;1856987;77;33185;-61
2023/01/28 13:16:55;;;;;;;3.30;3.00;;;;;;;20.57;31.04;99534.42;1868778;76;28230;-61
2023/01/28 13:19:43;;;;;;;3.35;3.05;;;;;;;20.59;31.02;99533.67;1856764;77;28187;-59
2023/01/28 13:22:35;;;;;;;3.00;2.80;;;;;;;20.62;30.96;99530.51;1868653;76;28173;-61
2023/01/28 13:25:32;;;;;;;3.17;2.90;;;;;;;20.60;30.99;99535.36;1868689;76;28242;-60
2023/01/28 13:28:28;;;;;;;3.40;3.10;;;;;;;20.61;30.97;99532.08;1868872;76;28164;-60
2023/01/28 13:31:18;;;;;;;2.52;2.33;;;;;;;20.60;30.99;99533.15;1848215;76;28226;-60
2023/01/28 13:34:10;;;;;;;2.92;2.72;;;;;;;20.59;31.01;99536.40;1868800;76;28137;-59
2023/01/28 13:37:00;;;;;;;3.33;3.02;;;;;;;20.57;31.03;99537.67;1846596;76;28192;-60
2023/01/28 13:39:52;;;;;;;2.92;2.72;;;;;;;20.59;30.99;99546.47;1868841;76;28115;-59
2023/01/28 13:42:41;;;;;;;3.07;2.73;;;;;;;20.62;30.99;99549.61;1868777;76;28106;-59
2023/01/28 13:45:32;;;;;;;3.02;2.83;;;;;;;20.58;31.00;99559.27;1868768;76;28153;-59
2023/01/28 13:48:42;;;;;;;3.17;2.77;;;;;;;20.60;31.00;99560.44;1842976;76;28255;-60
2023/01/28 13:51:33;;;;;;;3.60;2.77;;;;;;;20.59;30.99;99560.12;1868505;76;28198;-62
2023/01/28 13:54:24;;;;;;;3.00;2.70;;;;;;;20.56;31.05;99560.58;1868564;76;28122;-59
2023/01/28 13:57:16;;;;;;;3.00;2.80;;;;;;;20.56;31.02;99562.76;1837503;77;28288;-59
2023/01/28 14:00:27;;;;;;;3.22;2.92;;;;;;;20.58;31.01;99570.19;1864907;76;28246;-59
2023/01/28 14:03:18;;;;;;;2.75;2.55;;;;;;;20.56;31.02;99572.31;1868556;76;28167;-59
2023/01/28 14:06:24;;;;;;;3.00;2.80;;;;;;;20.56;31.04;99566.84;1866840;76;28216;-60
2023/01/28 14:09:18;;;;;;;3.00;2.80;;;;;;;20.58;31.02;99568.83;1855705;76;28161;-61
2023/01/28 14:12:32;;;;;;;3.12;2.83;;;;;;;20.55;31.05;99570.66;1853660;76;28226;-61